Reykjavik, Iceland
Current Conditions -  °F | °C
As of 10:00 PM on Thursday 23 Oct 2014 (Local Time) from BIRK Reporting Station
Broken Clouds Broken Clouds  
Wind Chill: 32°   Ceiling: 4100
Heat Index: 36°   Visibility: 6mi
Dew Point: 32°   Wind: 5mph
Humidity: 87%   Direction: 150°SSE
Pressure: 29.06"   Gusts: NA
Location:  64.14°N, 21.92°W
Report Text: BIRK 232200Z 15004KT 9999 SCT030 BKN041 02/00 Q0984
Loading
Personal Weather Stations






























Interactive Weather Map
Tropical Storm Tracking
New forecast layout! Learn more

10-Day Weather Forecast

Advertisements
Track Severe Weather on mobile